Time;durP1;ratioP1;P1;durP2;ratioP2;P2;SDS_P1;SDS_P2;PMS_P1;PMS_P2;Temp;Humidity;BMP_temperature;BMP_pressure;BME280_temperature;BME280_humidity;BME280_pressure;Samples;Min_cycle;Max_cycle;Signal;HPM_P1;HPM_P2
2022/09/11 00:01:24;;;;;;;46.38;43.15;;;;;;;19.67;56.93;101633.53;5054208;28;20116;-72
2022/09/11 00:03:50;;;;;;;47.63;44.17;;;;;;;19.66;57.15;101628.34;5089725;28;20123;-72
2022/09/11 00:06:21;;;;;;;44.20;41.53;;;;;;;19.65;57.06;101630.25;5046852;28;20108;-76
2022/09/11 00:08:50;;;;;;;45.95;42.88;;;;;;;19.64;57.01;101636.00;5037947;28;20056;-72
2022/09/11 00:11:17;;;;;;;;;;;;;;;19.62;56.87;101638.22;5056295;28;20032;-72
2022/09/11 00:13:48;;;;;;;43.88;40.95;;;;;;;19.60;57.11;101643.97;5056639;28;19909;-72
2022/09/11 00:16:24;;;;;;;44.15;41.25;;;;;;;19.58;56.61;101643.44;5041332;28;20060;-73
2022/09/11 00:18:50;;;;;;;48.95;45.78;;;;;;;19.56;56.78;101650.31;5055214;28;20032;-72
2022/09/11 00:21:16;;;;;;;45.97;43.17;;;;;;;19.56;56.72;101655.78;5056697;28;20037;-72
2022/09/11 00:23:43;;;;;;;46.33;43.35;;;;;;;19.54;56.57;101653.31;5057026;28;20029;-71
2022/09/11 00:26:08;;;;;;;46.15;43.35;;;;;;;19.53;56.72;101654.44;5056045;28;20037;-72
2022/09/11 00:28:35;;;;;;;46.17;42.63;;;;;;;19.51;56.84;101653.06;5057090;28;20037;-79
2022/09/11 00:31:04;;;;;;;44.55;41.65;;;;;;;19.51;56.77;101655.81;5057443;28;20127;-72
2022/09/11 00:33:32;;;;;;;44.65;41.70;;;;;;;19.49;56.67;101656.09;5056482;28;20101;-72
2022/09/11 00:36:00;;;;;;;47.13;43.83;;;;;;;19.48;56.82;101653.59;5057090;28;20090;-72
2022/09/11 00:38:28;;;;;;;43.80;40.75;;;;;;;19.46;57.09;101649.25;5058099;28;20036;-72
2022/09/11 00:40:57;;;;;;;43.50;40.78;;;;;;;19.46;56.90;101662.13;5056610;28;20028;-72
2022/09/11 00:43:22;;;;;;;;;;;;;;;19.44;56.47;101664.31;5053813;28;20025;-71
2022/09/11 00:45:57;;;;;;;42.78;39.95;;;;;;;19.41;56.48;101662.97;5054047;28;19916;-72
2022/09/11 00:48:26;;;;;;;45.45;42.28;;;;;;;19.40;56.84;101661.34;5054211;28;20025;-71
2022/09/11 00:50:54;;;;;;;45.00;42.08;;;;;;;19.38;57.00;101658.06;5053387;28;20029;-72
2022/09/11 00:53:22;;;;;;;44.15;40.95;;;;;;;19.38;57.08;101663.53;5052780;28;20033;-72
2022/09/11 00:55:52;;;;;;;45.60;42.28;;;;;;;19.36;56.82;101665.72;5053171;28;20496;-71
2022/09/11 00:58:24;;;;;;;43.67;40.85;;;;;;;19.35;56.81;101655.03;5047226;28;20029;-72
2022/09/11 01:00:53;;;;;;;44.65;41.10;;;;;;;19.33;56.97;101652.59;5034284;28;20030;-72
2022/09/11 01:03:18;;;;;;;;;;;;;;;19.33;56.55;101654.50;5045822;28;20033;-72
2022/09/11 01:05:44;;;;;;;44.10;41.25;;;;;;;19.30;56.93;101653.13;5053449;28;20276;-72
2022/09/11 01:08:09;;;;;;;43.83;40.75;;;;;;;19.30;56.73;101660.53;5053508;28;20035;-73
2022/09/11 01:10:41;;;;;;;43.70;40.83;;;;;;;19.28;56.69;101669.03;5053613;28;20032;-73
2022/09/11 01:13:21;;;;;;;46.22;42.92;;;;;;;19.27;56.68;101670.13;5053606;28;20035;-71
2022/09/11 01:15:52;;;;;;;45.75;42.80;;;;;;;19.26;56.91;101664.94;5052384;28;20056;-71
2022/09/11 01:18:30;;;;;;;47.00;43.90;;;;;;;19.23;56.72;101669.06;5052423;28;20029;-72
2022/09/11 01:21:19;;;;;;;44.67;41.63;;;;;;;19.22;57.26;101670.94;5043023;28;20473;-72
2022/09/11 01:23:59;;;;;;;45.40;42.20;;;;;;;19.20;56.86;101675.06;5040218;28;20025;-72
2022/09/11 01:26:51;;;;;;;44.60;41.80;;;;;;;19.20;57.21;101672.34;5053444;28;20044;-72
2022/09/11 01:29:38;;;;;;;45.22;41.97;;;;;;;19.17;56.77;101665.50;5053166;28;20143;-72
2022/09/11 01:32:14;;;;;;;44.38;41.10;;;;;;;19.16;57.03;101671.25;5048135;28;20021;-72
2022/09/11 01:34:49;;;;;;;46.20;42.75;;;;;;;19.14;56.66;101668.78;5033904;28;20037;-71
2022/09/11 01:37:25;;;;;;;44.45;41.55;;;;;;;19.14;56.78;101670.72;5046848;28;20086;-72
2022/09/11 01:39:59;;;;;;;45.13;42.30;;;;;;;19.14;57.11;101678.94;5040373;28;20155;-72
2022/09/11 01:42:30;;;;;;;44.20;41.05;;;;;;;19.11;56.99;101677.56;5033585;28;20029;-71
2022/09/11 01:44:56;;;;;;;44.47;41.40;;;;;;;19.10;56.74;101677.84;5051725;28;20128;-73
2022/09/11 01:47:23;;;;;;;42.13;38.92;;;;;;;19.08;56.87;101675.41;5053035;28;20025;-72
2022/09/11 01:49:54;;;;;;;45.55;42.28;;;;;;;19.08;57.20;101677.31;5052146;28;20060;-73
2022/09/11 01:52:29;;;;;;;42.35;39.53;;;;;;;19.07;56.76;101676.47;5052934;28;20151;-72
2022/09/11 01:55:08;;;;;;;43.08;40.38;;;;;;;19.06;56.75;101682.25;5050579;28;20522;-72
2022/09/11 01:57:46;;;;;;;42.45;39.35;;;;;;;19.05;57.11;101675.09;5052440;28;20504;-72
2022/09/11 02:00:13;;;;;;;43.15;40.35;;;;;;;19.01;57.07;101675.66;5033535;28;20029;-71
2022/09/11 02:02:45;;;;;;;44.63;41.15;;;;;;;19.01;56.66;101683.06;5041925;28;20042;-72
2022/09/11 02:06:03;;;;;;;44.83;41.67;;;;;;;18.99;56.68;101686.06;5032713;28;20473;-75
2022/09/11 02:08:36;;;;;;;42.55;39.42;;;;;;;18.97;56.83;101682.78;5017632;28;20089;-72
2022/09/11 02:11:11;;;;;;;43.78;40.92;;;;;;;18.97;56.67;101681.97;5031453;28;20056;-72
2022/09/11 02:13:52;;;;;;;40.92;38.22;;;;;;;18.95;57.04;101685.00;5032969;28;20480;-72
2022/09/11 02:16:51;;;;;;;45.75;42.58;;;;;;;18.94;56.90;101688.00;5032722;28;20021;-72
2022/09/11 02:19:19;;;;;;;43.83;40.67;;;;;;;18.92;56.55;101685.53;5040325;28;20039;-72
2022/09/11 02:21:46;;;;;;;42.13;39.20;;;;;;;18.91;56.87;101688.56;5036053;28;20059;-72
2022/09/11 02:24:13;;;;;;;43.53;40.22;;;;;;;18.90;56.71;101689.63;5032995;28;20040;-72
2022/09/11 02:26:44;;;;;;;45.90;42.70;;;;;;;18.89;56.62;101697.03;5032461;28;20455;-72
2022/09/11 02:29:11;;;;;;;45.97;42.75;;;;;;;18.87;57.03;101692.94;5045828;28;20099;-73
2022/09/11 02:31:38;;;;;;;42.88;39.80;;;;;;;18.86;56.62;101689.38;5052044;28;20033;-72
2022/09/11 02:34:03;;;;;;;43.00;40.15;;;;;;;18.85;57.06;101692.38;5051480;28;20116;-72
2022/09/11 02:36:41;;;;;;;44.25;41.15;;;;;;;18.84;57.12;101698.97;5051725;28;20503;-72
2022/09/11 02:39:27;;;;;;;43.72;40.90;;;;;;;18.82;56.90;101685.53;5051507;28;20032;-73
2022/09/11 02:42:01;;;;;;;46.95;43.45;;;;;;;18.81;56.58;101683.91;5051303;28;20389;-72
2022/09/11 02:44:59;;;;;;;43.92;40.92;;;;;;;18.80;56.57;101690.50;5051579;28;20032;-72
2022/09/11 02:48:10;;;;;;;42.97;39.75;;;;;;;18.77;56.92;101691.88;5051759;28;20033;-72
2022/09/11 02:50:42;;;;;;;44.03;40.97;;;;;;;18.75;56.84;101688.56;5046586;28;20033;-72
2022/09/11 02:53:07;;;;;;;43.28;40.15;;;;;;;18.74;56.72;101695.09;5032231;28;20108;-72
2022/09/11 02:55:55;;;;;;;45.92;42.75;;;;;;;18.73;56.85;101695.38;5031986;28;20539;-72
2022/09/11 02:58:26;;;;;;;41.97;38.67;;;;;;;18.72;56.48;101691.84;5032376;28;20033;-74
2022/09/11 03:00:55;;;;;;;43.10;40.22;;;;;;;18.71;56.36;101700.31;5036874;28;20290;-73
2022/09/11 03:03:20;;;;;;;43.60;40.30;;;;;;;18.71;56.75;101705.78;5050986;28;20021;-73
2022/09/11 03:05:46;;;;;;;43.67;40.63;;;;;;;18.69;56.63;101705.22;5034785;28;20034;-72
2022/09/11 03:08:13;;;;;;;44.22;41.08;;;;;;;18.68;56.80;101709.06;5031669;28;20068;-72
2022/09/11 03:10:39;;;;;;;43.65;40.67;;;;;;;18.67;56.93;101704.69;5045881;28;20036;-72
2022/09/11 03:13:04;;;;;;;44.10;40.97;;;;;;;18.65;56.83;101704.97;5063441;28;20518;-72
2022/09/11 03:15:30;;;;;;;42.47;39.55;;;;;;;18.64;56.91;101697.84;5032267;28;20458;-72
2022/09/11 03:17:56;;;;;;;45.72;42.42;;;;;;;18.65;56.52;101706.88;5031553;28;20144;-72
2022/09/11 03:20:22;;;;;;;44.30;41.17;;;;;;;18.63;56.68;101703.59;5031377;28;20477;-73
2022/09/11 03:22:47;;;;;;;41.38;38.75;;;;;;;18.62;56.46;101712.88;5031951;28;20156;-71
2022/09/11 03:25:13;;;;;;;44.13;41.20;;;;;;;18.59;56.28;101704.13;5031164;28;20037;-72
2022/09/11 03:27:40;;;;;;;42.05;39.30;;;;;;;18.58;56.54;101709.88;5031796;28;20583;-72
2022/09/11 03:30:06;;;;;;;43.55;40.35;;;;;;;18.57;56.33;101717.28;5031041;28;20029;-71
2022/09/11 03:32:31;;;;;;;42.22;39.03;;;;;;;18.57;56.95;101710.97;5030397;28;20373;-72
2022/09/11 03:34:57;;;;;;;42.75;39.70;;;;;;;18.54;56.42;101712.34;5030053;28;20053;-71
2022/09/11 03:37:22;;;;;;;44.13;41.03;;;;;;;18.54;56.33;101715.06;5063894;28;20034;-73
2022/09/11 03:39:48;;;;;;;46.03;42.53;;;;;;;18.53;56.64;101707.16;5031592;28;20037;-72
2022/09/11 03:42:13;;;;;;;41.67;38.80;;;;;;;18.52;56.87;101713.69;5029961;28;20111;-72
2022/09/11 03:44:40;;;;;;;44.10;40.80;;;;;;;18.50;56.89;101705.78;5031305;28;20103;-71
2022/09/11 03:47:06;;;;;;;46.90;43.03;;;;;;;18.49;56.57;101709.59;5031093;28;20044;-71
2022/09/11 03:49:31;;;;;;;43.50;40.38;;;;;;;18.49;56.42;101708.78;5031282;28;20386;-74
2022/09/11 03:51:57;;;;;;;43.40;40.33;;;;;;;18.46;56.71;101704.66;5031211;28;20113;-72
2022/09/11 03:54:22;;;;;;;39.88;37.20;;;;;;;18.45;56.31;101703.03;5031761;28;20036;-72
2022/09/11 03:56:47;;;;;;;44.65;41.75;;;;;;;18.44;56.02;101711.50;5031765;28;20037;-72
2022/09/11 03:59:13;;;;;;;41.83;39.00;;;;;;;18.43;56.60;101710.69;5031221;28;20034;-72
2022/09/11 04:01:38;;;;;;;43.10;40.13;;;;;;;18.42;56.45;101713.69;5046290;28;20493;-72
2022/09/11 04:04:04;;;;;;;42.88;39.67;;;;;;;18.41;56.79;101704.66;5050778;28;20033;-72
2022/09/11 04:06:31;;;;;;;42.03;39.10;;;;;;;18.38;56.85;101703.31;5050947;28;20095;-71
2022/09/11 04:08:57;;;;;;;42.53;39.45;;;;;;;18.38;56.55;101702.47;5033932;28;20065;-72
2022/09/11 04:11:23;;;;;;;41.75;38.67;;;;;;;18.37;56.33;101711.78;5050133;28;20029;-72
2022/09/11 04:13:50;;;;;;;41.97;39.08;;;;;;;18.36;56.55;101707.41;5050481;28;20047;-72
2022/09/11 04:16:17;;;;;;;40.25;37.38;;;;;;;18.34;56.66;101713.16;5049723;28;20086;-72
2022/09/11 04:18:48;;;;;;;41.13;38.10;;;;;;;18.33;56.23;101711.50;5053170;28;20039;-72
2022/09/11 04:21:16;;;;;;;43.25;40.42;;;;;;;18.32;56.51;101712.59;5036847;28;20548;-72
2022/09/11 04:23:44;;;;;;;40.58;37.60;;;;;;;18.31;56.72;101707.38;5035060;28;20462;-72
2022/09/11 04:26:18;;;;;;;39.95;37.17;;;;;;;18.30;56.64;101706.56;5049709;28;20040;-72
2022/09/11 04:28:44;;;;;;;40.97;37.97;;;;;;;18.28;56.67;101714.22;5034989;28;20040;-72
2022/09/11 04:31:10;;;;;;;40.65;37.72;;;;;;;18.27;56.61;101709.84;5049319;28;20393;-72
2022/09/11 04:33:36;;;;;;;40.88;37.85;;;;;;;18.26;56.63;101721.06;5041300;28;20555;-72
2022/09/11 04:36:06;;;;;;;43.38;40.08;;;;;;;18.24;56.20;101712.28;5044632;28;20037;-72
2022/09/11 04:38:32;;;;;;;41.55;38.40;;;;;;;18.24;56.67;101709.56;5054061;28;20040;-73
2022/09/11 04:41:05;;;;;;;43.38;40.20;;;;;;;18.21;56.63;101710.09;5053568;28;20059;-72
2022/09/11 04:43:31;;;;;;;41.92;38.63;;;;;;;18.20;56.30;101709.28;5054191;28;20037;-74
2022/09/11 04:46:08;;;;;;;40.08;37.28;;;;;;;18.18;56.38;101708.75;5053773;28;20037;-79
2022/09/11 04:48:36;;;;;;;42.30;39.00;;;;;;;18.16;56.64;101717.19;5054034;28;20082;-73
2022/09/11 04:51:05;;;;;;;42.60;39.28;;;;;;;18.15;56.62;101712.84;5053264;28;20033;-73
2022/09/11 04:53:31;;;;;;;39.95;37.40;;;;;;;18.14;56.37;101711.19;5036805;28;20030;-73
2022/09/11 04:56:09;;;;;;;39.72;37.00;;;;;;;18.14;56.75;101719.41;5044161;28;20109;-72
2022/09/11 04:58:35;;;;;;;39.28;36.67;;;;;;;18.12;56.50;101728.97;5053913;28;20047;-73
2022/09/11 05:01:05;;;;;;;41.08;38.38;;;;;;;18.12;56.08;101734.44;5039749;28;20042;-73
2022/09/11 05:03:30;;;;;;;39.00;36.25;;;;;;;18.10;56.37;101740.16;5034412;28;20060;-72
2022/09/11 05:05:56;;;;;;;39.13;36.47;;;;;;;18.09;56.41;101740.41;5034204;28;20478;-72
2022/09/11 05:08:25;;;;;;;39.58;36.83;;;;;;;18.08;55.93;101752.47;5040197;28;20380;-73
2022/09/11 05:10:51;;;;;;;39.17;36.70;;;;;;;18.07;56.02;101757.13;5044749;28;20469;-74
2022/09/11 05:13:17;;;;;;;40.70;38.08;;;;;;;18.05;56.00;101747.53;5050852;28;20065;-73
2022/09/11 05:15:42;;;;;;;38.85;36.17;;;;;;;18.04;56.21;101754.91;5051670;28;20201;-72
2022/09/11 05:18:09;;;;;;;43.58;40.75;;;;;;;18.03;56.32;101758.72;5052285;28;20036;-72
2022/09/11 05:20:35;;;;;;;38.10;35.70;;;;;;;18.03;56.42;101766.13;5053183;28;20059;-72
2022/09/11 05:23:00;;;;;;;40.22;37.67;;;;;;;18.01;56.51;101763.63;5044981;28;20474;-79
2022/09/11 05:25:28;;;;;;;39.95;37.42;;;;;;;17.99;56.45;101768.53;5033894;28;20401;-72
2022/09/11 05:27:54;;;;;;;39.97;37.38;;;;;;;17.99;56.08;101779.47;5033429;28;20065;-72
2022/09/11 05:30:19;;;;;;;40.83;37.95;;;;;;;17.98;56.47;101774.28;5033057;28;20051;-72
2022/09/11 05:32:44;;;;;;;38.75;36.15;;;;;;;17.95;56.35;101773.72;5051462;28;20091;-72
2022/09/11 05:35:10;;;;;;;43.25;40.28;;;;;;;17.95;56.38;101781.13;5052399;28;20041;-78
2022/09/11 05:37:35;;;;;;;37.95;35.45;;;;;;;17.94;56.29;101787.66;5033902;28;20458;-72
2022/09/11 05:40:02;;;;;;;41.85;39.13;;;;;;;17.93;56.62;101796.97;5033451;28;20041;-81
2022/09/11 05:42:27;;;;;;;40.35;37.70;;;;;;;17.92;56.30;101793.41;5033533;28;20083;-72
2022/09/11 05:44:53;;;;;;;39.60;36.97;;;;;;;17.91;56.25;101794.47;5038961;28;20029;-73
2022/09/11 05:47:18;;;;;;;38.95;36.53;;;;;;;17.91;56.47;101796.41;5048925;28;20037;-73
2022/09/11 05:49:44;;;;;;;38.10;35.80;;;;;;;17.89;56.56;101782.16;5033075;28;20033;-73
2022/09/11 05:52:09;;;;;;;39.22;36.63;;;;;;;17.88;56.70;101789.56;5032041;28;20474;-71
2022/09/11 05:54:35;;;;;;;37.30;34.92;;;;;;;17.88;56.72;101796.94;5033203;28;20489;-71
2022/09/11 05:57:01;;;;;;;38.08;35.78;;;;;;;17.86;56.55;101797.19;5033290;28;20120;-72
2022/09/11 05:59:26;;;;;;;37.13;35.03;;;;;;;17.86;56.47;101801.84;5032884;28;20037;-71
2022/09/11 06:01:52;;;;;;;39.30;36.83;;;;;;;17.84;56.63;101810.31;5033001;28;20497;-72
2022/09/11 06:04:18;;;;;;;39.85;37.25;;;;;;;17.84;56.38;101814.94;5034282;28;20079;-72
2022/09/11 06:06:46;;;;;;;39.88;37.42;;;;;;;17.84;56.53;101817.69;5052707;28;20174;-72
2022/09/11 06:09:12;;;;;;;38.50;36.13;;;;;;;17.83;56.38;101821.50;5050549;28;20057;-72
2022/09/11 06:11:37;;;;;;;38.97;36.58;;;;;;;17.82;56.45;101820.69;5038122;28;20112;-72
2022/09/11 06:14:03;;;;;;;38.90;36.70;;;;;;;17.81;56.98;101819.03;5032861;28;20382;-71
2022/09/11 06:16:30;;;;;;;37.30;35.00;;;;;;;17.81;56.90;101820.94;5041647;28;20040;-71
2022/09/11 06:18:56;;;;;;;40.05;37.30;;;;;;;17.80;56.96;101830.25;5052192;28;20050;-72
2022/09/11 06:21:24;;;;;;;39.33;36.58;;;;;;;17.78;56.49;101827.72;5051855;28;20037;-73
2022/09/11 06:23:51;;;;;;;36.77;34.47;;;;;;;17.78;56.61;101826.91;5046163;28;20486;-72
2022/09/11 06:26:20;;;;;;;38.30;35.85;;;;;;;17.77;56.71;101828.00;5031585;28;20025;-74
2022/09/11 06:28:46;;;;;;;37.05;34.75;;;;;;;17.77;57.10;101831.56;5038807;28;20028;-73
2022/09/11 06:31:17;;;;;;;38.22;35.83;;;;;;;17.77;57.05;101838.94;5051904;28;20028;-74
2022/09/11 06:33:43;;;;;;;38.30;35.70;;;;;;;17.75;56.93;101836.47;5051173;28;20457;-73
2022/09/11 06:36:10;;;;;;;38.30;35.65;;;;;;;17.76;57.11;101827.16;5023125;28;20029;-73
2022/09/11 06:38:39;;;;;;;38.05;35.65;;;;;;;17.76;56.98;101829.09;5051805;28;20394;-73
2022/09/11 06:41:09;;;;;;;37.05;34.75;;;;;;;17.76;57.14;101831.81;5051346;28;20461;-71
2022/09/11 06:43:34;;;;;;;37.00;34.75;;;;;;;17.74;57.14;101841.13;5041867;28;20032;-71
2022/09/11 06:46:10;;;;;;;41.45;38.85;;;;;;;17.74;57.67;101838.38;5041173;28;20033;-74
2022/09/11 06:48:35;;;;;;;38.08;35.78;;;;;;;17.73;57.37;101828.53;5042255;28;20132;-73
2022/09/11 06:51:02;;;;;;;37.75;35.45;;;;;;;17.73;57.30;101833.16;5032141;28;20112;-72
2022/09/11 06:53:28;;;;;;;38.53;35.92;;;;;;;17.74;57.72;101840.31;5032054;28;20545;-72
2022/09/11 06:55:58;;;;;;;36.50;34.08;;;;;;;17.72;57.34;101837.81;5032335;28;20108;-74
2022/09/11 06:58:24;;;;;;;40.03;37.22;;;;;;;17.73;57.36;101833.16;5031814;28;20107;-71
2022/09/11 07:00:49;;;;;;;36.50;33.58;;;;;;;17.72;57.43;101835.09;5036473;28;20060;-71
2022/09/11 07:03:15;;;;;;;39.97;37.42;;;;;;;17.72;57.64;101834.28;5035949;28;20116;-71
2022/09/11 07:05:46;;;;;;;36.22;33.92;;;;;;;17.72;57.62;101840.56;5030888;28;20037;-72
2022/09/11 07:08:11;;;;;;;39.42;36.60;;;;;;;17.73;57.98;101847.66;5031497;28;20117;-70
2022/09/11 07:10:37;;;;;;;39.17;36.42;;;;;;;17.72;57.73;101837.81;5050129;28;20475;-71
2022/09/11 07:13:02;;;;;;;39.55;36.90;;;;;;;17.73;57.97;101844.09;5051409;28;20033;-72
2022/09/11 07:15:28;;;;;;;39.65;36.97;;;;;;;17.73;58.16;101834.00;5045163;28;20607;-71
2022/09/11 07:17:54;;;;;;;41.13;38.15;;;;;;;17.73;58.34;101833.16;5044136;28;20429;-72
2022/09/11 07:20:21;;;;;;;41.08;37.97;;;;;;;17.74;58.15;101830.19;5036672;28;20037;-74
2022/09/11 07:22:49;;;;;;;40.33;37.63;;;;;;;17.75;58.37;101828.28;5044752;28;20061;-72
2022/09/11 07:25:14;;;;;;;42.88;39.13;;;;;;;17.74;58.16;101827.44;5031765;28;20424;-72
2022/09/11 07:27:40;;;;;;;42.25;39.15;;;;;;;17.75;58.31;101831.00;5031411;28;20049;-73
2022/09/11 07:30:06;;;;;;;38.65;35.88;;;;;;;17.76;58.59;101829.91;5039727;28;20041;-72
2022/09/11 07:32:32;;;;;;;41.13;38.28;;;;;;;17.77;58.57;101838.94;5032980;28;20045;-71
2022/09/11 07:34:57;;;;;;;40.00;37.03;;;;;;;17.76;58.51;101831.81;5030910;28;20530;-72
2022/09/11 07:37:23;;;;;;;40.55;37.45;;;;;;;17.76;58.86;101829.91;5035965;28;20033;-71
2022/09/11 07:39:48;;;;;;;40.30;37.50;;;;;;;17.77;59.07;101833.47;5050918;28;20072;-72
2022/09/11 07:42:14;;;;;;;39.88;37.00;;;;;;;17.78;59.20;101846.03;5048789;28;20527;-72
2022/09/11 07:44:39;;;;;;;40.88;38.17;;;;;;;17.78;58.88;101841.41;5050868;28;20465;-72
2022/09/11 07:47:05;;;;;;;40.00;36.88;;;;;;;17.79;59.11;101836.75;5049812;28;20029;-71
2022/09/11 07:49:30;;;;;;;41.40;38.33;;;;;;;17.80;58.95;101844.72;5039735;28;20033;-73
2022/09/11 07:51:58;;;;;;;41.90;38.88;;;;;;;17.80;59.31;101847.47;5032798;28;20033;-72
2022/09/11 07:54:25;;;;;;;43.25;39.92;;;;;;;17.81;59.08;101845.53;5053263;28;20044;-72
2022/09/11 07:56:50;;;;;;;44.60;41.25;;;;;;;17.81;59.11;101845.53;5046086;28;20477;-72
2022/09/11 07:59:17;;;;;;;44.33;41.00;;;;;;;17.83;59.09;101851.56;5033683;28;20103;-72
2022/09/11 08:01:42;;;;;;;41.85;38.60;;;;;;;17.84;59.16;101851.31;5035454;28;20113;-73
2022/09/11 08:04:13;;;;;;;42.58;38.80;;;;;;;17.85;59.78;101852.13;5034307;28;20120;-71
2022/09/11 08:06:39;;;;;;;45.17;41.50;;;;;;;17.87;59.66;101864.44;5049778;28;20504;-72
2022/09/11 08:09:07;;;;;;;43.55;39.95;;;;;;;17.89;59.56;101865.03;5054558;28;20487;-71
2022/09/11 08:11:37;;;;;;;44.53;40.90;;;;;;;17.92;59.93;101860.94;5054518;28;20228;-72
2022/09/11 08:14:03;;;;;;;43.28;39.72;;;;;;;17.94;59.95;101864.19;5042864;28;20120;-71
2022/09/11 08:16:29;;;;;;;46.67;42.50;;;;;;;17.95;60.24;101863.94;5042049;28;20033;-72
2022/09/11 08:18:55;;;;;;;45.40;41.72;;;;;;;17.98;60.16;101862.59;5053835;28;20037;-72
2022/09/11 08:21:22;;;;;;;46.92;43.03;;;;;;;17.99;60.62;101858.75;5052927;28;20029;-74
2022/09/11 08:23:48;;;;;;;44.97;41.50;;;;;;;18.01;60.14;101862.06;5053509;28;20130;-72
2022/09/11 08:26:16;;;;;;;45.50;41.90;;;;;;;18.03;60.34;101861.81;5053341;28;20480;-72
2022/09/11 08:28:43;;;;;;;46.53;42.45;;;;;;;18.06;60.61;101864.00;5054590;28;20063;-72
2022/09/11 08:31:10;;;;;;;48.30;43.95;;;;;;;18.08;61.08;101870.84;5054272;28;20488;-72
2022/09/11 08:33:36;;;;;;;45.92;42.03;;;;;;;18.11;60.88;101874.97;5086426;28;20036;-72
2022/09/11 08:36:04;;;;;;;48.42;44.20;;;;;;;18.14;60.70;101872.53;5041182;28;20025;-72
2022/09/11 08:38:30;;;;;;;46.88;42.92;;;;;;;18.17;60.76;101873.91;5033962;28;20029;-72
2022/09/11 08:40:58;;;;;;;47.10;43.33;;;;;;;18.20;60.95;101870.63;5034758;28;20476;-71
2022/09/11 08:43:31;;;;;;;43.92;40.67;;;;;;;18.25;60.98;101872.59;5033962;28;20026;-71
2022/09/11 08:46:03;;;;;;;47.58;43.85;;;;;;;18.30;60.71;101875.34;5034473;28;20048;-73
2022/09/11 08:48:52;;;;;;;50.35;46.20;;;;;;;18.33;61.32;101877.53;5034238;28;20025;-71
2022/09/11 08:51:18;;;;;;;46.90;42.65;;;;;;;18.37;61.11;101884.13;5044905;28;20058;-72
2022/09/11 08:53:44;;;;;;;45.22;41.33;;;;;;;18.38;60.77;101881.09;5052874;28;20033;-72
2022/09/11 08:56:22;;;;;;;53.58;47.08;;;;;;;18.42;61.66;101875.94;5053753;28;20131;-71
2022/09/11 08:58:56;;;;;;;47.03;43.20;;;;;;;18.45;61.35;101882.78;5054112;28;20060;-72
2022/09/11 09:01:27;;;;;;;46.85;43.08;;;;;;;18.47;61.43;101878.69;5053584;28;20041;-73
2022/09/11 09:04:26;;;;;;;51.72;47.10;;;;;;;18.51;61.43;101884.44;5051061;28;20118;-72
2022/09/11 09:07:12;;;;;;;51.22;46.33;;;;;;;18.54;61.42;101881.97;5040953;28;20496;-72
2022/09/11 09:09:54;;;;;;;47.65;43.97;;;;;;;18.57;61.27;101894.28;5041612;28;20267;-72
2022/09/11 09:12:31;;;;;;;50.13;45.88;;;;;;;18.60;61.05;101885.56;5038932;28;20033;-72
2022/09/11 09:15:12;;;;;;;51.00;46.78;;;;;;;18.65;60.84;101890.22;5053713;28;20087;-77
2022/09/11 09:17:44;;;;;;;53.67;48.92;;;;;;;18.68;61.44;101892.44;5052015;28;20036;-73
2022/09/11 09:20:16;;;;;;;48.67;44.55;;;;;;;18.71;61.23;101900.09;5053767;28;20033;-73
2022/09/11 09:23:02;;;;;;;52.15;47.60;;;;;;;18.74;61.68;101899.56;5044680;28;20037;-72
2022/09/11 09:25:33;;;;;;;51.10;47.00;;;;;;;18.76;61.52;101892.75;5032205;28;20388;-73
2022/09/11 09:28:07;;;;;;;49.15;45.10;;;;;;;18.81;61.61;101900.16;5032569;28;20127;-75
2022/09/11 09:31:04;;;;;;;48.63;44.67;;;;;;;18.85;61.79;101901.28;5033605;28;20022;-74
2022/09/11 09:33:34;;;;;;;52.50;47.77;;;;;;;18.88;61.32;101903.47;5033151;28;20099;-72
2022/09/11 09:36:16;;;;;;;53.47;48.28;;;;;;;18.94;61.92;101909.78;5033388;28;20021;-72
2022/09/11 09:38:42;;;;;;;52.80;48.13;;;;;;;18.96;61.72;101904.84;5033333;28;20124;-72
2022/09/11 09:41:26;;;;;;;52.75;48.53;;;;;;;19.01;61.74;101910.34;5033448;28;20034;-72
2022/09/11 09:44:21;;;;;;;50.70;46.88;;;;;;;19.06;61.91;101906.78;5052185;28;20436;-73
2022/09/11 09:46:49;;;;;;;49.97;45.60;;;;;;;19.09;61.18;101907.06;5051852;28;20033;-72
2022/09/11 09:49:31;;;;;;;50.25;46.05;;;;;;;19.14;61.77;101907.06;5052968;28;20025;-71
2022/09/11 09:51:58;;;;;;;51.50;47.40;;;;;;;19.17;61.87;101905.69;5052694;28;20025;-72
2022/09/11 09:54:27;;;;;;;49.60;45.67;;;;;;;19.22;61.62;101902.97;5052537;28;20056;-71
2022/09/11 09:57:03;;;;;;;51.88;47.53;;;;;;;19.26;61.61;101906.81;5053196;28;20035;-74
2022/09/11 09:59:39;;;;;;;53.58;48.95;;;;;;;19.31;62.09;101906.81;5051234;28;20044;-71
2022/09/11 10:02:05;;;;;;;53.63;49.08;;;;;;;19.34;61.89;101910.94;5032746;28;20043;-72
2022/09/11 10:04:31;;;;;;;52.80;48.40;;;;;;;19.38;61.93;101912.03;5033049;28;20033;-73
2022/09/11 10:07:10;;;;;;;55.20;50.70;;;;;;;19.42;62.36;101913.94;5032814;28;20060;-71
2022/09/11 10:09:57;;;;;;;53.53;49.30;;;;;;;19.46;61.95;101904.06;5032523;28;20029;-72
2022/09/11 10:12:26;;;;;;;50.47;46.10;;;;;;;19.50;62.04;101909.00;5038026;28;20106;-71
2022/09/11 10:15:01;;;;;;;52.55;48.17;;;;;;;19.56;61.90;101907.91;5051783;28;20052;-71
2022/09/11 10:17:29;;;;;;;50.85;46.70;;;;;;;19.59;62.07;101902.69;5051773;28;20476;-72
2022/09/11 10:20:11;;;;;;;49.47;45.60;;;;;;;19.63;61.28;101897.47;5052618;28;20093;-71
2022/09/11 10:22:36;;;;;;;52.00;47.88;;;;;;;19.67;61.66;101899.41;5036328;28;20029;-71
2022/09/11 10:25:11;;;;;;;49.75;46.15;;;;;;;19.72;61.62;101895.84;5032563;28;20037;-72
2022/09/11 10:27:46;;;;;;;49.35;45.17;;;;;;;19.77;61.23;101897.78;5043358;28;20044;-72
2022/09/11 10:30:31;;;;;;;52.08;48.38;;;;;;;19.81;61.51;101905.19;5051681;28;20032;-72
2022/09/11 10:32:58;;;;;;;52.85;48.90;;;;;;;19.85;61.18;101899.94;5052080;28;20029;-74
2022/09/11 10:35:26;;;;;;;49.28;46.03;;;;;;;19.90;61.52;101899.94;5051847;28;20411;-71
2022/09/11 10:38:16;;;;;;;49.75;46.33;;;;;;;19.95;61.66;101899.13;5042976;28;20040;-71
2022/09/11 10:40:51;;;;;;;52.33;48.50;;;;;;;19.97;61.17;101905.97;5043954;28;20112;-71
2022/09/11 10:43:23;;;;;;;52.95;48.80;;;;;;;20.02;61.15;101899.66;5032808;28;20037;-72
2022/09/11 10:46:23;;;;;;;52.88;48.92;;;;;;;20.06;61.29;101900.75;5031821;28;20030;-71
2022/09/11 10:49:17;;;;;;;49.00;45.40;;;;;;;20.10;60.83;101899.88;5032243;28;20025;-72
2022/09/11 10:52:22;;;;;;;52.92;49.17;;;;;;;20.14;61.17;101899.34;5030248;28;20500;-73
2022/09/11 10:55:01;;;;;;;52.63;48.63;;;;;;;20.19;60.70;101894.66;5029872;28;20034;-72
2022/09/11 10:57:49;;;;;;;52.40;48.50;;;;;;;20.22;60.97;101894.09;5032486;28;20035;-78
2022/09/11 11:00:29;;;;;;;50.13;46.42;;;;;;;20.25;60.98;101893.53;5032445;28;20021;-71
2022/09/11 11:03:16;;;;;;;50.72;47.45;;;;;;;20.29;61.06;101891.88;5031629;28;20381;-71
2022/09/11 11:06:18;;;;;;;55.00;50.97;;;;;;;20.33;60.93;101883.91;5031799;28;20034;-71
2022/09/11 11:09:22;;;;;;;51.88;47.90;;;;;;;20.37;60.56;101882.25;5040217;28;20078;-72
2022/09/11 11:12:13;;;;;;;50.53;47.15;;;;;;;20.40;60.33;101886.34;5030922;28;20075;-71
2022/09/11 11:15:21;;;;;;;49.10;45.80;;;;;;;20.43;60.47;101889.34;5031988;28;20466;-71
2022/09/11 11:18:00;;;;;;;48.28;45.05;;;;;;;20.46;60.05;101886.06;5020401;28;20493;-73
2022/09/11 11:20:34;;;;;;;50.17;46.22;;;;;;;20.50;60.47;101884.38;5036419;28;20029;-72
2022/09/11 11:23:13;;;;;;;49.08;45.70;;;;;;;20.55;59.96;101880.00;5051821;28;20469;-71
2022/09/11 11:25:58;;;;;;;55.85;51.63;;;;;;;20.59;59.73;101878.31;5035849;28;20393;-71
2022/09/11 11:28:53;;;;;;;53.20;49.72;;;;;;;20.61;59.79;101876.94;5030524;28;20049;-71